sensor_id;sensor_type;location;lat;lon;timestamp;P1;durP1;ratioP1;P2;durP2;ratioP2
34741;SDS011;20968;42.696;23.360;2022-11-15T00:00:47;132.32;;;65.82;;
34741;SDS011;20968;42.696;23.360;2022-11-15T00:03:13;132.10;;;67.05;;
34741;SDS011;20968;42.696;23.360;2022-11-15T00:05:40;145.82;;;68.10;;
34741;SDS011;20968;42.696;23.360;2022-11-15T00:08:06;146.05;;;67.85;;
34741;SDS011;20968;42.696;23.360;2022-11-15T00:10:31;128.55;;;62.75;;
34741;SDS011;20968;42.696;23.360;2022-11-15T00:12:56;136.40;;;62.72;;
34741;SDS011;20968;42.696;23.360;2022-11-15T00:15:22;123.25;;;58.85;;
34741;SDS011;20968;42.696;23.360;2022-11-15T00:17:50;128.90;;;57.33;;
34741;SDS011;20968;42.696;23.360;2022-11-15T00:20:17;110.50;;;49.25;;
34741;SDS011;20968;42.696;23.360;2022-11-15T00:22:42;95.40;;;45.17;;
34741;SDS011;20968;42.696;23.360;2022-11-15T00:25:08;102.82;;;47.55;;
34741;SDS011;20968;42.696;23.360;2022-11-15T00:27:33;100.07;;;45.97;;
34741;SDS011;20968;42.696;23.360;2022-11-15T00:29:59;98.20;;;45.75;;
34741;SDS011;20968;42.696;23.360;2022-11-15T00:32:25;87.70;;;42.08;;
34741;SDS011;20968;42.696;23.360;2022-11-15T00:34:50;93.35;;;43.28;;
34741;SDS011;20968;42.696;23.360;2022-11-15T00:37:16;94.80;;;42.17;;
34741;SDS011;20968;42.696;23.360;2022-11-15T00:39:41;93.65;;;43.47;;
34741;SDS011;20968;42.696;23.360;2022-11-15T00:42:07;82.55;;;40.05;;
34741;SDS011;20968;42.696;23.360;2022-11-15T00:44:32;91.53;;;41.92;;
34741;SDS011;20968;42.696;23.360;2022-11-15T00:46:58;91.15;;;42.05;;
34741;SDS011;20968;42.696;23.360;2022-11-15T00:49:23;86.72;;;39.45;;
34741;SDS011;20968;42.696;23.360;2022-11-15T00:51:48;83.07;;;38.67;;
34741;SDS011;20968;42.696;23.360;2022-11-15T00:54:14;90.85;;;41.53;;
34741;SDS011;20968;42.696;23.360;2022-11-15T00:56:39;80.18;;;38.00;;
34741;SDS011;20968;42.696;23.360;2022-11-15T00:59:05;84.53;;;39.20;;
34741;SDS011;20968;42.696;23.360;2022-11-15T01:01:30;89.90;;;40.92;;
34741;SDS011;20968;42.696;23.360;2022-11-15T01:03:55;80.63;;;36.95;;
34741;SDS011;20968;42.696;23.360;2022-11-15T01:06:21;82.32;;;40.25;;
34741;SDS011;20968;42.696;23.360;2022-11-15T01:08:46;91.32;;;39.17;;
34741;SDS011;20968;42.696;23.360;2022-11-15T01:11:12;91.10;;;42.10;;
34741;SDS011;20968;42.696;23.360;2022-11-15T01:17:17;84.55;;;36.60;;
34741;SDS011;20968;42.696;23.360;2022-11-15T01:19:43;83.53;;;37.15;;
34741;SDS011;20968;42.696;23.360;2022-11-15T01:22:08;80.28;;;36.60;;
34741;SDS011;20968;42.696;23.360;2022-11-15T01:24:34;76.95;;;35.85;;
34741;SDS011;20968;42.696;23.360;2022-11-15T01:26:59;78.35;;;37.35;;
34741;SDS011;20968;42.696;23.360;2022-11-15T01:29:24;75.97;;;36.78;;
34741;SDS011;20968;42.696;23.360;2022-11-15T01:31:50;72.00;;;33.35;;
34741;SDS011;20968;42.696;23.360;2022-11-15T01:34:18;84.60;;;35.22;;
34741;SDS011;20968;42.696;23.360;2022-11-15T01:36:43;75.80;;;36.80;;
34741;SDS011;20968;42.696;23.360;2022-11-15T01:39:09;83.93;;;37.05;;
34741;SDS011;20968;42.696;23.360;2022-11-15T01:41:34;84.70;;;41.58;;
34741;SDS011;20968;42.696;23.360;2022-11-15T01:47:01;86.97;;;40.33;;
34741;SDS011;20968;42.696;23.360;2022-11-15T01:49:30;85.07;;;38.58;;
34741;SDS011;20968;42.696;23.360;2022-11-15T01:52:00;84.03;;;38.55;;
34741;SDS011;20968;42.696;23.360;2022-11-15T01:54:28;78.38;;;34.17;;
34741;SDS011;20968;42.696;23.360;2022-11-15T01:56:55;79.05;;;35.55;;
34741;SDS011;20968;42.696;23.360;2022-11-15T01:59:26;110.40;;;48.55;;
34741;SDS011;20968;42.696;23.360;2022-11-15T02:01:51;108.30;;;46.40;;
34741;SDS011;20968;42.696;23.360;2022-11-15T02:04:33;93.57;;;41.15;;
34741;SDS011;20968;42.696;23.360;2022-11-15T02:07:03;86.93;;;38.80;;
34741;SDS011;20968;42.696;23.360;2022-11-15T02:09:31;99.38;;;42.80;;
34741;SDS011;20968;42.696;23.360;2022-11-15T02:11:57;90.65;;;42.58;;
34741;SDS011;20968;42.696;23.360;2022-11-15T02:14:24;94.53;;;43.78;;
34741;SDS011;20968;42.696;23.360;2022-11-15T02:32:49;136.93;;;60.63;;
34741;SDS011;20968;42.696;23.360;2022-11-15T02:37:57;135.82;;;60.40;;
34741;SDS011;20968;42.696;23.360;2022-11-15T02:40:41;125.35;;;56.70;;
34741;SDS011;20968;42.696;23.360;2022-11-15T02:43:53;134.32;;;54.88;;
34741;SDS011;20968;42.696;23.360;2022-11-15T02:46:26;123.35;;;49.80;;
34741;SDS011;20968;42.696;23.360;2022-11-15T02:49:14;112.97;;;47.17;;
34741;SDS011;20968;42.696;23.360;2022-11-15T02:51:40;102.50;;;44.00;;
34741;SDS011;20968;42.696;23.360;2022-11-15T02:54:15;99.95;;;44.35;;
34741;SDS011;20968;42.696;23.360;2022-11-15T02:56:46;102.70;;;45.42;;
34741;SDS011;20968;42.696;23.360;2022-11-15T03:04:14;82.60;;;36.95;;
34741;SDS011;20968;42.696;23.360;2022-11-15T03:09:24;109.03;;;42.78;;
34741;SDS011;20968;42.696;23.360;2022-11-15T03:12:13;98.80;;;38.60;;
34741;SDS011;20968;42.696;23.360;2022-11-15T03:14:43;98.60;;;42.22;;
34741;SDS011;20968;42.696;23.360;2022-11-15T03:17:29;105.40;;;41.55;;
34741;SDS011;20968;42.696;23.360;2022-11-15T03:19:59;104.95;;;44.05;;
34741;SDS011;20968;42.696;23.360;2022-11-15T03:22:29;96.70;;;44.22;;
34741;SDS011;20968;42.696;23.360;2022-11-15T03:25:02;102.25;;;41.30;;
34741;SDS011;20968;42.696;23.360;2022-11-15T03:27:32;100.22;;;41.38;;
34741;SDS011;20968;42.696;23.360;2022-11-15T03:30:02;90.95;;;39.58;;
34741;SDS011;20968;42.696;23.360;2022-11-15T03:32:32;86.80;;;38.45;;
34741;SDS011;20968;42.696;23.360;2022-11-15T03:35:06;94.60;;;39.13;;
34741;SDS011;20968;42.696;23.360;2022-11-15T03:37:42;105.78;;;41.78;;
34741;SDS011;20968;42.696;23.360;2022-11-15T03:40:14;89.55;;;39.20;;
34741;SDS011;20968;42.696;23.360;2022-11-15T03:45:22;94.32;;;41.08;;
34741;SDS011;20968;42.696;23.360;2022-11-15T03:50:36;93.95;;;41.92;;
34741;SDS011;20968;42.696;23.360;2022-11-15T03:53:02;106.93;;;42.30;;
34741;SDS011;20968;42.696;23.360;2022-11-15T03:55:27;101.75;;;40.33;;
34741;SDS011;20968;42.696;23.360;2022-11-15T03:57:54;97.53;;;43.40;;
34741;SDS011;20968;42.696;23.360;2022-11-15T04:00:23;119.90;;;48.83;;
34741;SDS011;20968;42.696;23.360;2022-11-15T04:02:49;128.52;;;49.80;;
34741;SDS011;20968;42.696;23.360;2022-11-15T04:05:14;137.55;;;51.30;;
34741;SDS011;20968;42.696;23.360;2022-11-15T04:07:39;116.32;;;46.47;;
34741;SDS011;20968;42.696;23.360;2022-11-15T04:10:05;112.03;;;46.05;;
34741;SDS011;20968;42.696;23.360;2022-11-15T04:12:35;101.25;;;40.97;;
34741;SDS011;20968;42.696;23.360;2022-11-15T04:15:11;97.85;;;42.15;;
34741;SDS011;20968;42.696;23.360;2022-11-15T04:17:40;88.90;;;37.88;;
34741;SDS011;20968;42.696;23.360;2022-11-15T04:20:12;76.80;;;34.70;;
34741;SDS011;20968;42.696;23.360;2022-11-15T04:23:02;78.55;;;37.92;;
34741;SDS011;20968;42.696;23.360;2022-11-15T04:25:49;82.97;;;37.20;;
34741;SDS011;20968;42.696;23.360;2022-11-15T04:28:16;86.07;;;38.20;;
34741;SDS011;20968;42.696;23.360;2022-11-15T04:30:42;84.20;;;36.08;;
34741;SDS011;20968;42.696;23.360;2022-11-15T04:33:07;73.25;;;38.00;;
34741;SDS011;20968;42.696;23.360;2022-11-15T04:35:33;81.20;;;33.38;;
34741;SDS011;20968;42.696;23.360;2022-11-15T04:37:59;74.95;;;32.75;;
34741;SDS011;20968;42.696;23.360;2022-11-15T04:40:25;64.47;;;32.75;;
34741;SDS011;20968;42.696;23.360;2022-11-15T04:42:50;62.42;;;31.80;;
34741;SDS011;20968;42.696;23.360;2022-11-15T04:45:15;58.92;;;32.13;;
34741;SDS011;20968;42.696;23.360;2022-11-15T04:47:43;63.17;;;31.67;;
34741;SDS011;20968;42.696;23.360;2022-11-15T04:50:09;71.60;;;33.42;;
34741;SDS011;20968;42.696;23.360;2022-11-15T04:52:38;63.58;;;30.98;;
34741;SDS011;20968;42.696;23.360;2022-11-15T04:55:05;69.63;;;33.20;;
34741;SDS011;20968;42.696;23.360;2022-11-15T04:57:30;61.17;;;30.08;;
34741;SDS011;20968;42.696;23.360;2022-11-15T04:59:56;63.28;;;33.28;;
34741;SDS011;20968;42.696;23.360;2022-11-15T05:02:21;58.47;;;30.95;;
34741;SDS011;20968;42.696;23.360;2022-11-15T05:04:46;64.15;;;31.70;;
34741;SDS011;20968;42.696;23.360;2022-11-15T05:07:12;63.22;;;32.47;;
34741;SDS011;20968;42.696;23.360;2022-11-15T05:09:37;58.50;;;29.95;;
34741;SDS011;20968;42.696;23.360;2022-11-15T05:12:02;61.28;;;32.67;;
34741;SDS011;20968;42.696;23.360;2022-11-15T05:14:28;61.63;;;28.75;;
34741;SDS011;20968;42.696;23.360;2022-11-15T05:16:54;64.65;;;31.63;;
34741;SDS011;20968;42.696;23.360;2022-11-15T05:19:19;61.72;;;31.23;;
34741;SDS011;20968;42.696;23.360;2022-11-15T05:21:45;59.05;;;30.80;;
34741;SDS011;20968;42.696;23.360;2022-11-15T05:24:10;55.80;;;31.48;;
34741;SDS011;20968;42.696;23.360;2022-11-15T05:26:36;64.35;;;33.33;;
34741;SDS011;20968;42.696;23.360;2022-11-15T05:29:02;60.85;;;30.75;;
34741;SDS011;20968;42.696;23.360;2022-11-15T05:31:27;73.32;;;32.67;;
34741;SDS011;20968;42.696;23.360;2022-11-15T05:33:53;61.17;;;31.42;;
34741;SDS011;20968;42.696;23.360;2022-11-15T05:36:39;69.82;;;31.92;;
34741;SDS011;20968;42.696;23.360;2022-11-15T05:39:07;63.53;;;32.10;;
34741;SDS011;20968;42.696;23.360;2022-11-15T05:41:35;69.95;;;32.30;;
34741;SDS011;20968;42.696;23.360;2022-11-15T05:44:05;67.80;;;32.90;;
34741;SDS011;20968;42.696;23.360;2022-11-15T05:46:34;66.97;;;33.13;;
34741;SDS011;20968;42.696;23.360;2022-11-15T05:49:02;68.97;;;33.13;;
34741;SDS011;20968;42.696;23.360;2022-11-15T05:51:32;67.50;;;30.95;;
34741;SDS011;20968;42.696;23.360;2022-11-15T05:53:58;69.50;;;32.28;;
34741;SDS011;20968;42.696;23.360;2022-11-15T05:56:25;69.47;;;32.38;;
34741;SDS011;20968;42.696;23.360;2022-11-15T05:58:51;85.07;;;34.33;;
34741;SDS011;20968;42.696;23.360;2022-11-15T06:01:20;66.82;;;29.23;;
34741;SDS011;20968;42.696;23.360;2022-11-15T06:03:46;91.22;;;37.92;;
34741;SDS011;20968;42.696;23.360;2022-11-15T06:06:11;88.88;;;38.08;;
34741;SDS011;20968;42.696;23.360;2022-11-15T06:08:37;87.80;;;38.47;;
34741;SDS011;20968;42.696;23.360;2022-11-15T06:11:03;80.25;;;36.05;;
34741;SDS011;20968;42.696;23.360;2022-11-15T06:13:30;90.80;;;37.30;;
34741;SDS011;20968;42.696;23.360;2022-11-15T06:15:55;82.90;;;32.50;;
34741;SDS011;20968;42.696;23.360;2022-11-15T06:18:21;69.05;;;27.48;;
34741;SDS011;20968;42.696;23.360;2022-11-15T06:20:47;58.60;;;24.42;;
34741;SDS011;20968;42.696;23.360;2022-11-15T06:23:12;47.38;;;20.80;;
34741;SDS011;20968;42.696;23.360;2022-11-15T06:25:38;51.97;;;19.70;;
34741;SDS011;20968;42.696;23.360;2022-11-15T06:28:03;54.78;;;22.02;;
34741;SDS011;20968;42.696;23.360;2022-11-15T06:30:29;49.63;;;19.23;;
34741;SDS011;20968;42.696;23.360;2022-11-15T06:33:01;55.20;;;20.88;;
34741;SDS011;20968;42.696;23.360;2022-11-15T06:37:54;51.75;;;20.33;;
34741;SDS011;20968;42.696;23.360;2022-11-15T06:40:19;40.22;;;16.88;;
34741;SDS011;20968;42.696;23.360;2022-11-15T06:42:45;41.95;;;18.92;;
34741;SDS011;20968;42.696;23.360;2022-11-15T06:45:10;47.90;;;19.50;;
34741;SDS011;20968;42.696;23.360;2022-11-15T06:47:36;44.53;;;18.42;;
34741;SDS011;20968;42.696;23.360;2022-11-15T06:50:10;46.10;;;18.38;;
34741;SDS011;20968;42.696;23.360;2022-11-15T06:52:35;51.17;;;19.65;;
34741;SDS011;20968;42.696;23.360;2022-11-15T06:55:00;55.33;;;22.05;;
34741;SDS011;20968;42.696;23.360;2022-11-15T06:57:26;51.25;;;21.48;;
34741;SDS011;20968;42.696;23.360;2022-11-15T06:59:51;45.03;;;20.30;;
34741;SDS011;20968;42.696;23.360;2022-11-15T07:02:17;41.47;;;17.48;;
34741;SDS011;20968;42.696;23.360;2022-11-15T07:04:42;51.45;;;20.60;;
34741;SDS011;20968;42.696;23.360;2022-11-15T07:07:07;51.17;;;20.70;;
34741;SDS011;20968;42.696;23.360;2022-11-15T07:09:33;51.38;;;20.52;;
34741;SDS011;20968;42.696;23.360;2022-11-15T07:11:58;42.38;;;21.50;;
34741;SDS011;20968;42.696;23.360;2022-11-15T07:14:24;43.47;;;18.27;;
34741;SDS011;20968;42.696;23.360;2022-11-15T07:16:49;44.22;;;19.65;;
34741;SDS011;20968;42.696;23.360;2022-11-15T07:19:14;44.38;;;21.05;;
34741;SDS011;20968;42.696;23.360;2022-11-15T07:21:40;47.78;;;19.05;;
34741;SDS011;20968;42.696;23.360;2022-11-15T07:24:05;43.47;;;19.48;;
34741;SDS011;20968;42.696;23.360;2022-11-15T07:26:31;48.30;;;20.23;;
34741;SDS011;20968;42.696;23.360;2022-11-15T07:28:56;48.13;;;20.13;;
34741;SDS011;20968;42.696;23.360;2022-11-15T07:31:22;43.97;;;17.60;;
34741;SDS011;20968;42.696;23.360;2022-11-15T07:33:47;47.05;;;19.13;;
34741;SDS011;20968;42.696;23.360;2022-11-15T07:36:13;56.45;;;23.17;;
34741;SDS011;20968;42.696;23.360;2022-11-15T07:38:41;58.45;;;22.83;;
34741;SDS011;20968;42.696;23.360;2022-11-15T07:41:09;57.05;;;22.83;;
34741;SDS011;20968;42.696;23.360;2022-11-15T07:43:35;62.83;;;25.85;;
34741;SDS011;20968;42.696;23.360;2022-11-15T07:46:06;63.60;;;23.83;;
34741;SDS011;20968;42.696;23.360;2022-11-15T07:48:34;64.63;;;25.75;;
34741;SDS011;20968;42.696;23.360;2022-11-15T07:51:01;59.90;;;23.95;;
34741;SDS011;20968;42.696;23.360;2022-11-15T07:53:27;54.65;;;20.27;;
34741;SDS011;20968;42.696;23.360;2022-11-15T07:55:52;50.20;;;21.33;;
34741;SDS011;20968;42.696;23.360;2022-11-15T07:58:21;52.10;;;21.75;;
34741;SDS011;20968;42.696;23.360;2022-11-15T08:00:46;53.78;;;22.80;;
34741;SDS011;20968;42.696;23.360;2022-11-15T08:03:15;52.50;;;23.00;;
34741;SDS011;20968;42.696;23.360;2022-11-15T08:05:41;56.10;;;23.98;;
34741;SDS011;20968;42.696;23.360;2022-11-15T08:08:08;57.22;;;24.38;;
34741;SDS011;20968;42.696;23.360;2022-11-15T08:10:35;51.15;;;24.48;;
34741;SDS011;20968;42.696;23.360;2022-11-15T08:13:08;52.78;;;23.17;;
34741;SDS011;20968;42.696;23.360;2022-11-15T08:15:35;57.83;;;25.95;;
34741;SDS011;20968;42.696;23.360;2022-11-15T08:18:08;59.97;;;25.55;;
34741;SDS011;20968;42.696;23.360;2022-11-15T08:20:36;64.57;;;27.85;;
34741;SDS011;20968;42.696;23.360;2022-11-15T08:23:03;58.58;;;24.70;;
34741;SDS011;20968;42.696;23.360;2022-11-15T08:25:29;63.20;;;25.42;;
34741;SDS011;20968;42.696;23.360;2022-11-15T08:27:56;50.53;;;23.35;;
34741;SDS011;20968;42.696;23.360;2022-11-15T08:30:23;52.88;;;22.92;;
34741;SDS011;20968;42.696;23.360;2022-11-15T08:32:49;49.30;;;22.30;;
34741;SDS011;20968;42.696;23.360;2022-11-15T08:35:16;65.35;;;28.23;;
34741;SDS011;20968;42.696;23.360;2022-11-15T08:37:42;67.72;;;27.88;;
34741;SDS011;20968;42.696;23.360;2022-11-15T08:40:07;57.55;;;23.20;;
34741;SDS011;20968;42.696;23.360;2022-11-15T08:42:34;65.38;;;28.05;;
34741;SDS011;20968;42.696;23.360;2022-11-15T08:45:00;65.93;;;26.95;;
34741;SDS011;20968;42.696;23.360;2022-11-15T08:47:26;77.82;;;32.58;;
34741;SDS011;20968;42.696;23.360;2022-11-15T08:49:51;66.25;;;28.13;;
34741;SDS011;20968;42.696;23.360;2022-11-15T08:52:17;69.35;;;29.23;;
34741;SDS011;20968;42.696;23.360;2022-11-15T08:54:42;70.18;;;28.77;;
34741;SDS011;20968;42.696;23.360;2022-11-15T08:57:07;70.05;;;31.38;;
34741;SDS011;20968;42.696;23.360;2022-11-15T08:59:34;75.72;;;35.10;;
34741;SDS011;20968;42.696;23.360;2022-11-15T09:02:00;69.80;;;31.58;;
34741;SDS011;20968;42.696;23.360;2022-11-15T09:04:26;93.97;;;51.35;;
34741;SDS011;20968;42.696;23.360;2022-11-15T09:06:51;70.93;;;37.50;;
34741;SDS011;20968;42.696;23.360;2022-11-15T09:09:17;75.47;;;33.03;;
34741;SDS011;20968;42.696;23.360;2022-11-15T09:11:42;72.25;;;31.17;;
34741;SDS011;20968;42.696;23.360;2022-11-15T09:14:10;68.07;;;30.55;;
34741;SDS011;20968;42.696;23.360;2022-11-15T09:16:36;71.25;;;30.65;;
34741;SDS011;20968;42.696;23.360;2022-11-15T09:19:01;74.32;;;32.45;;
34741;SDS011;20968;42.696;23.360;2022-11-15T09:21:28;75.13;;;32.97;;
34741;SDS011;20968;42.696;23.360;2022-11-15T09:23:54;80.18;;;34.83;;
34741;SDS011;20968;42.696;23.360;2022-11-15T09:26:19;87.00;;;33.50;;
34741;SDS011;20968;42.696;23.360;2022-11-15T09:28:44;84.50;;;36.13;;
34741;SDS011;20968;42.696;23.360;2022-11-15T09:31:10;95.72;;;39.58;;
34741;SDS011;20968;42.696;23.360;2022-11-15T09:33:35;87.35;;;36.05;;
34741;SDS011;20968;42.696;23.360;2022-11-15T09:36:02;92.30;;;37.13;;
34741;SDS011;20968;42.696;23.360;2022-11-15T09:38:29;90.53;;;37.67;;
34741;SDS011;20968;42.696;23.360;2022-11-15T09:43:46;89.88;;;38.95;;
34741;SDS011;20968;42.696;23.360;2022-11-15T09:48:59;95.38;;;38.00;;
34741;SDS011;20968;42.696;23.360;2022-11-15T09:54:23;95.05;;;39.80;;
34741;SDS011;20968;42.696;23.360;2022-11-15T10:05:15;101.30;;;38.53;;
34741;SDS011;20968;42.696;23.360;2022-11-15T10:10:41;94.82;;;40.45;;
34741;SDS011;20968;42.696;23.360;2022-11-15T10:13:44;101.88;;;43.35;;
34741;SDS011;20968;42.696;23.360;2022-11-15T10:24:19;111.47;;;45.25;;
34741;SDS011;20968;42.696;23.360;2022-11-15T10:26:49;116.10;;;48.15;;
34741;SDS011;20968;42.696;23.360;2022-11-15T10:29:20;117.15;;;49.28;;
34741;SDS011;20968;42.696;23.360;2022-11-15T10:31:46;110.45;;;46.42;;
34741;SDS011;20968;42.696;23.360;2022-11-15T10:34:13;101.85;;;46.83;;
34741;SDS011;20968;42.696;23.360;2022-11-15T10:36:57;103.18;;;46.80;;
34741;SDS011;20968;42.696;23.360;2022-11-15T10:39:24;102.38;;;46.38;;
34741;SDS011;20968;42.696;23.360;2022-11-15T10:41:50;97.75;;;46.28;;
34741;SDS011;20968;42.696;23.360;2022-11-15T10:44:19;104.95;;;50.42;;
34741;SDS011;20968;42.696;23.360;2022-11-15T10:47:05;125.55;;;51.80;;
34741;SDS011;20968;42.696;23.360;2022-11-15T10:49:52;123.43;;;52.50;;
34741;SDS011;20968;42.696;23.360;2022-11-15T10:52:47;105.63;;;48.78;;
34741;SDS011;20968;42.696;23.360;2022-11-15T10:57:47;117.40;;;50.33;;
34741;SDS011;20968;42.696;23.360;2022-11-15T11:00:57;102.93;;;46.58;;
34741;SDS011;20968;42.696;23.360;2022-11-15T11:03:05;100.47;;;45.25;;
34741;SDS011;20968;42.696;23.360;2022-11-15T11:05:46;112.60;;;50.42;;
34741;SDS011;20968;42.696;23.360;2022-11-15T11:10:41;83.20;;;39.42;;
34741;SDS011;20968;42.696;23.360;2022-11-15T11:13:27;87.53;;;39.60;;
34741;SDS011;20968;42.696;23.360;2022-11-15T11:18:41;72.40;;;37.47;;
34741;SDS011;20968;42.696;23.360;2022-11-15T11:21:14;76.47;;;35.67;;
34741;SDS011;20968;42.696;23.360;2022-11-15T11:23:52;96.00;;;39.00;;
34741;SDS011;20968;42.696;23.360;2022-11-15T11:28:57;79.90;;;38.35;;
34741;SDS011;20968;42.696;23.360;2022-11-15T11:45:27;73.30;;;34.95;;
34741;SDS011;20968;42.696;23.360;2022-11-15T11:50:42;66.80;;;33.45;;
34741;SDS011;20968;42.696;23.360;2022-11-15T11:56:31;68.07;;;35.28;;
34741;SDS011;20968;42.696;23.360;2022-11-15T11:59:45;62.67;;;32.00;;
34741;SDS011;20968;42.696;23.360;2022-11-15T12:01:50;69.10;;;33.22;;
34741;SDS011;20968;42.696;23.360;2022-11-15T12:04:25;62.80;;;31.90;;
34741;SDS011;20968;42.696;23.360;2022-11-15T12:17:36;65.15;;;31.95;;
34741;SDS011;20968;42.696;23.360;2022-11-15T12:20:14;64.35;;;31.75;;
34741;SDS011;20968;42.696;23.360;2022-11-15T12:28:25;63.72;;;31.48;;
34741;SDS011;20968;42.696;23.360;2022-11-15T12:31:39;67.68;;;33.97;;
34741;SDS011;20968;42.696;23.360;2022-11-15T12:34:15;67.97;;;33.25;;
34741;SDS011;20968;42.696;23.360;2022-11-15T12:36:45;61.85;;;31.92;;
34741;SDS011;20968;42.696;23.360;2022-11-15T12:39:11;61.38;;;32.78;;
34741;SDS011;20968;42.696;23.360;2022-11-15T12:41:38;57.95;;;29.33;;
34741;SDS011;20968;42.696;23.360;2022-11-15T12:44:10;68.32;;;32.13;;
34741;SDS011;20968;42.696;23.360;2022-11-15T13:12:55;76.97;;;34.97;;
34741;SDS011;20968;42.696;23.360;2022-11-15T13:21:17;61.95;;;31.50;;
34741;SDS011;20968;42.696;23.360;2022-11-15T13:24:13;65.88;;;31.98;;
34741;SDS011;20968;42.696;23.360;2022-11-15T13:26:40;60.05;;;30.98;;
34741;SDS011;20968;42.696;23.360;2022-11-15T13:29:16;67.32;;;33.85;;
34741;SDS011;20968;42.696;23.360;2022-11-15T13:31:43;66.85;;;34.28;;
34741;SDS011;20968;42.696;23.360;2022-11-15T13:34:28;66.03;;;34.53;;
34741;SDS011;20968;42.696;23.360;2022-11-15T13:36:58;67.85;;;35.55;;
34741;SDS011;20968;42.696;23.360;2022-11-15T13:39:28;71.70;;;34.88;;
34741;SDS011;20968;42.696;23.360;2022-11-15T13:41:58;64.90;;;35.50;;
34741;SDS011;20968;42.696;23.360;2022-11-15T13:44:27;72.60;;;36.13;;
34741;SDS011;20968;42.696;23.360;2022-11-15T13:49:30;64.63;;;33.93;;
34741;SDS011;20968;42.696;23.360;2022-11-15T13:51:57;63.00;;;32.63;;
34741;SDS011;20968;42.696;23.360;2022-11-15T14:00:06;65.32;;;33.78;;
34741;SDS011;20968;42.696;23.360;2022-11-15T14:02:53;67.30;;;33.25;;
34741;SDS011;20968;42.696;23.360;2022-11-15T14:05:20;67.53;;;33.72;;
34741;SDS011;20968;42.696;23.360;2022-11-15T14:07:55;70.80;;;32.28;;
34741;SDS011;20968;42.696;23.360;2022-11-15T14:10:40;64.38;;;31.52;;
34741;SDS011;20968;42.696;23.360;2022-11-15T14:13:10;66.85;;;32.85;;
34741;SDS011;20968;42.696;23.360;2022-11-15T14:15:52;59.53;;;29.67;;
34741;SDS011;20968;42.696;23.360;2022-11-15T14:18:39;67.78;;;34.63;;
34741;SDS011;20968;42.696;23.360;2022-11-15T14:21:07;67.22;;;35.63;;
34741;SDS011;20968;42.696;23.360;2022-11-15T14:23:33;104.40;;;51.40;;
34741;SDS011;20968;42.696;23.360;2022-11-15T14:25:59;72.20;;;35.20;;
34741;SDS011;20968;42.696;23.360;2022-11-15T14:30:51;72.43;;;35.30;;
34741;SDS011;20968;42.696;23.360;2022-11-15T14:33:23;75.40;;;33.65;;
34741;SDS011;20968;42.696;23.360;2022-11-15T14:35:57;84.30;;;42.92;;
34741;SDS011;20968;42.696;23.360;2022-11-15T14:38:27;73.85;;;37.30;;
34741;SDS011;20968;42.696;23.360;2022-11-15T14:40:52;91.55;;;47.78;;
34741;SDS011;20968;42.696;23.360;2022-11-15T14:43:21;86.90;;;45.03;;
34741;SDS011;20968;42.696;23.360;2022-11-15T14:45:47;85.82;;;42.03;;
34741;SDS011;20968;42.696;23.360;2022-11-15T14:48:13;77.55;;;39.22;;
34741;SDS011;20968;42.696;23.360;2022-11-15T14:50:41;85.70;;;40.20;;
34741;SDS011;20968;42.696;23.360;2022-11-15T14:53:11;79.90;;;38.88;;
34741;SDS011;20968;42.696;23.360;2022-11-15T14:55:38;82.18;;;42.20;;
34741;SDS011;20968;42.696;23.360;2022-11-15T14:58:04;101.05;;;43.58;;
34741;SDS011;20968;42.696;23.360;2022-11-15T15:00:41;82.75;;;41.58;;
34741;SDS011;20968;42.696;23.360;2022-11-15T15:03:07;89.88;;;40.20;;
34741;SDS011;20968;42.696;23.360;2022-11-15T15:05:37;76.97;;;38.97;;
34741;SDS011;20968;42.696;23.360;2022-11-15T15:08:04;98.50;;;43.10;;
34741;SDS011;20968;42.696;23.360;2022-11-15T15:10:35;80.82;;;41.53;;
34741;SDS011;20968;42.696;23.360;2022-11-15T15:13:02;83.97;;;41.20;;
34741;SDS011;20968;42.696;23.360;2022-11-15T15:15:33;93.97;;;40.10;;
34741;SDS011;20968;42.696;23.360;2022-11-15T15:18:03;74.93;;;38.42;;
34741;SDS011;20968;42.696;23.360;2022-11-15T15:20:31;77.85;;;37.83;;
34741;SDS011;20968;42.696;23.360;2022-11-15T15:22:57;76.57;;;37.42;;
34741;SDS011;20968;42.696;23.360;2022-11-15T15:25:33;82.30;;;39.20;;
34741;SDS011;20968;42.696;23.360;2022-11-15T15:28:00;74.15;;;35.58;;
34741;SDS011;20968;42.696;23.360;2022-11-15T15:30:26;84.07;;;40.10;;
34741;SDS011;20968;42.696;23.360;2022-11-15T15:32:53;79.00;;;41.42;;
34741;SDS011;20968;42.696;23.360;2022-11-15T15:35:19;76.63;;;40.65;;
34741;SDS011;20968;42.696;23.360;2022-11-15T15:37:45;77.13;;;37.95;;
34741;SDS011;20968;42.696;23.360;2022-11-15T15:40:14;85.90;;;39.05;;
34741;SDS011;20968;42.696;23.360;2022-11-15T15:42:44;78.63;;;37.85;;
34741;SDS011;20968;42.696;23.360;2022-11-15T15:45:10;80.03;;;38.20;;
34741;SDS011;20968;42.696;23.360;2022-11-15T15:47:36;82.03;;;38.33;;
34741;SDS011;20968;42.696;23.360;2022-11-15T15:50:03;92.85;;;40.05;;
34741;SDS011;20968;42.696;23.360;2022-11-15T15:52:29;92.55;;;39.80;;
34741;SDS011;20968;42.696;23.360;2022-11-15T15:54:55;77.53;;;36.70;;
34741;SDS011;20968;42.696;23.360;2022-11-15T15:57:20;110.25;;;50.80;;
34741;SDS011;20968;42.696;23.360;2022-11-15T15:59:46;97.82;;;46.95;;
34741;SDS011;20968;42.696;23.360;2022-11-15T16:02:14;96.05;;;44.72;;
34741;SDS011;20968;42.696;23.360;2022-11-15T16:04:39;80.70;;;42.35;;
34741;SDS011;20968;42.696;23.360;2022-11-15T16:07:05;101.10;;;50.22;;
34741;SDS011;20968;42.696;23.360;2022-11-15T16:09:31;80.72;;;39.17;;
34741;SDS011;20968;42.696;23.360;2022-11-15T16:12:15;82.53;;;43.67;;
34741;SDS011;20968;42.696;23.360;2022-11-15T16:14:41;97.10;;;49.03;;
34741;SDS011;20968;42.696;23.360;2022-11-15T16:17:14;102.05;;;48.97;;
34741;SDS011;20968;42.696;23.360;2022-11-15T16:19:43;89.47;;;47.35;;
34741;SDS011;20968;42.696;23.360;2022-11-15T16:22:08;98.43;;;48.25;;
34741;SDS011;20968;42.696;23.360;2022-11-15T16:24:34;89.72;;;44.30;;
34741;SDS011;20968;42.696;23.360;2022-11-15T16:26:59;100.82;;;49.47;;
34741;SDS011;20968;42.696;23.360;2022-11-15T16:29:25;118.00;;;59.67;;
34741;SDS011;20968;42.696;23.360;2022-11-15T16:31:50;108.40;;;53.78;;
34741;SDS011;20968;42.696;23.360;2022-11-15T16:34:16;95.85;;;46.30;;
34741;SDS011;20968;42.696;23.360;2022-11-15T16:36:42;100.03;;;48.00;;
34741;SDS011;20968;42.696;23.360;2022-11-15T16:39:10;98.47;;;48.38;;
34741;SDS011;20968;42.696;23.360;2022-11-15T16:41:37;130.63;;;62.58;;
34741;SDS011;20968;42.696;23.360;2022-11-15T16:44:03;126.30;;;63.45;;
34741;SDS011;20968;42.696;23.360;2022-11-15T16:46:28;115.85;;;61.00;;
34741;SDS011;20968;42.696;23.360;2022-11-15T16:48:54;108.00;;;53.72;;
34741;SDS011;20968;42.696;23.360;2022-11-15T16:51:20;110.07;;;53.28;;
34741;SDS011;20968;42.696;23.360;2022-11-15T16:53:47;105.30;;;53.80;;